createdAt,value
2023-05-12T00:00:08.166Z,99.90
2023-05-12T00:02:44.605Z,99.90
2023-05-12T00:05:11.611Z,99.90
2023-05-12T00:07:38.636Z,99.90
2023-05-12T00:10:05.622Z,99.90
2023-05-12T00:12:32.461Z,99.90
2023-05-12T00:15:01.257Z,99.90
2023-05-12T00:17:28.243Z,99.90
2023-05-12T00:19:55.093Z,99.90
2023-05-12T00:22:21.894Z,99.90
2023-05-12T00:24:48.797Z,99.90
2023-05-12T00:27:19.794Z,99.90
2023-05-12T00:30:14.326Z,99.90
2023-05-12T00:32:41.167Z,99.90
2023-05-12T00:35:09.364Z,99.90
2023-05-12T00:37:36.149Z,99.90
2023-05-12T00:40:13.419Z,99.90
2023-05-12T00:42:42.371Z,99.90
2023-05-12T00:45:23.982Z,99.90
2023-05-12T00:47:53.064Z,99.90
2023-05-12T00:50:20.877Z,99.90
2023-05-12T00:52:49.041Z,99.90
2023-05-12T00:55:16.225Z,99.90
2023-05-12T00:57:45.603Z,99.90
2023-05-12T01:00:14.065Z,99.90
2023-05-12T01:02:42.792Z,99.90
2023-05-12T01:05:10.030Z,99.90
2023-05-12T01:10:16.924Z,99.90
2023-05-12T01:12:45.171Z,99.90
2023-05-12T01:15:13.019Z,99.90
2023-05-12T01:17:44.863Z,99.90
2023-05-12T01:20:12.252Z,99.90
2023-05-12T01:22:40.981Z,99.90
2023-05-12T01:25:09.725Z,99.90
2023-05-12T01:27:39.452Z,99.90
2023-05-12T01:30:07.760Z,99.90
2023-05-12T01:32:36.410Z,99.90
2023-05-12T01:35:04.186Z,99.90
2023-05-12T01:37:33.143Z,99.90
2023-05-12T01:40:02.772Z,99.90
2023-05-12T01:42:29.764Z,99.90
2023-05-12T01:44:57.081Z,99.90
2023-05-12T01:47:24.393Z,99.90
2023-05-12T01:50:08.518Z,99.90
2023-05-12T01:52:35.582Z,99.90
2023-05-12T01:55:03.313Z,99.90
2023-05-12T01:57:36.425Z,99.90
2023-05-12T02:00:03.954Z,99.90
2023-05-12T02:02:42.767Z,99.90
2023-05-12T02:05:11.120Z,99.90
2023-05-12T02:07:38.107Z,99.90
2023-05-12T02:10:05.575Z,99.90
2023-05-12T02:12:34.512Z,99.90
2023-05-12T02:15:01.545Z,99.90
2023-05-12T02:17:29.849Z,99.90
2023-05-12T02:20:05.348Z,99.90
2023-05-12T02:22:32.454Z,99.90
2023-05-12T02:25:09.832Z,99.90
2023-05-12T02:27:36.788Z,99.90
2023-05-12T02:30:04.531Z,99.90
2023-05-12T02:32:38.644Z,99.90
2023-05-12T02:35:10.336Z,99.90
2023-05-12T02:37:38.325Z,99.90
2023-05-12T02:40:06.249Z,99.90
2023-05-12T02:42:35.616Z,99.90
2023-05-12T02:45:03.021Z,99.90
2023-05-12T02:47:32.993Z,99.90
2023-05-12T02:50:00.207Z,99.90
2023-05-12T02:52:27.231Z,99.90
2023-05-12T02:54:54.252Z,99.90
2023-05-12T02:57:21.118Z,99.90
2023-05-12T02:59:47.952Z,99.90
2023-05-12T03:02:14.822Z,99.90
2023-05-12T03:04:44.008Z,99.90
2023-05-12T03:07:10.936Z,99.90
2023-05-12T03:09:37.844Z,99.90
2023-05-12T03:12:04.797Z,99.90
2023-05-12T03:14:31.894Z,99.90
2023-05-12T03:16:59.014Z,99.90
2023-05-12T03:19:27.839Z,99.90
2023-05-12T03:21:54.906Z,99.90
2023-05-12T03:24:21.728Z,99.90
2023-05-12T03:26:48.692Z,99.90
2023-05-12T03:29:15.546Z,99.90
2023-05-12T03:32:11.400Z,99.90
2023-05-12T03:34:38.327Z,99.90
2023-05-12T03:37:05.299Z,99.90
2023-05-12T03:39:33.168Z,99.90
2023-05-12T03:42:00.195Z,99.90
2023-05-12T03:44:27.089Z,99.90
2023-05-12T03:46:53.888Z,99.90
2023-05-12T03:49:21.176Z,99.90
2023-05-12T03:51:48.017Z,99.90
2023-05-12T03:54:14.836Z,99.90
2023-05-12T03:56:42.362Z,99.90
2023-05-12T03:59:09.256Z,99.90
2023-05-12T04:01:36.301Z,99.90
2023-05-12T04:04:03.263Z,99.90
2023-05-12T04:06:30.297Z,99.90
2023-05-12T04:08:57.900Z,99.90
2023-05-12T04:11:25.286Z,99.90
2023-05-12T04:13:52.134Z,99.90
2023-05-12T04:16:19.088Z,99.90
2023-05-12T04:18:45.946Z,99.90
2023-05-12T04:21:12.859Z,99.90
2023-05-12T04:23:40.832Z,99.90
2023-05-12T04:26:13.805Z,99.90
2023-05-12T04:28:41.505Z,99.90
2023-05-12T04:31:09.254Z,99.90
2023-05-12T04:33:36.975Z,99.90
2023-05-12T04:36:05.719Z,99.90
2023-05-12T04:38:32.780Z,99.90
2023-05-12T04:41:00.087Z,99.90
2023-05-12T04:45:59.827Z,99.90
2023-05-12T04:48:29.139Z,99.90
2023-05-12T04:50:58.896Z,99.90
2023-05-12T04:53:25.903Z,99.90
2023-05-12T04:55:53.066Z,99.90
2023-05-12T04:58:20.005Z,99.90
2023-05-12T05:00:47.816Z,99.90
2023-05-12T05:03:14.916Z,99.90
2023-05-12T05:05:43.247Z,99.90
2023-05-12T05:08:10.802Z,99.90
2023-05-12T05:10:38.205Z,99.90
2023-05-12T05:13:05.114Z,99.90
2023-05-12T05:15:32.171Z,99.90
2023-05-12T05:18:01.714Z,99.90
2023-05-12T05:20:29.640Z,99.90
2023-05-12T05:22:57.905Z,99.90
2023-05-12T05:25:26.456Z,99.90
2023-05-12T05:27:55.674Z,99.90
2023-05-12T05:30:22.657Z,99.90
2023-05-12T05:32:49.724Z,99.90
2023-05-12T05:35:16.835Z,99.90
2023-05-12T05:37:47.248Z,99.90
2023-05-12T05:40:14.531Z,99.90
2023-05-12T05:42:41.510Z,99.90
2023-05-12T05:45:08.789Z,99.90
2023-05-12T05:47:37.471Z,99.90
2023-05-12T05:50:04.942Z,99.90
2023-05-12T05:52:33.705Z,99.90
2023-05-12T05:55:03.201Z,99.90
2023-05-12T05:57:30.994Z,99.90
2023-05-12T06:00:00.433Z,99.90
2023-05-12T06:02:27.869Z,99.90
2023-05-12T06:04:54.874Z,99.90
2023-05-12T06:07:28.897Z,99.90
2023-05-12T06:09:55.775Z,99.90
2023-05-12T06:12:22.753Z,99.90
2023-05-12T06:14:51.229Z,99.90
2023-05-12T06:17:18.212Z,99.90
2023-05-12T06:19:47.788Z,99.90
2023-05-12T06:22:15.667Z,99.90
2023-05-12T06:24:42.555Z,99.90
2023-05-12T06:27:10.006Z,99.90
2023-05-12T06:29:37.024Z,99.90
2023-05-12T06:32:04.022Z,99.90
2023-05-12T06:34:30.903Z,99.90
2023-05-12T06:37:03.959Z,99.90
2023-05-12T06:39:31.012Z,99.90
2023-05-12T06:41:57.872Z,99.90
2023-05-12T06:44:24.952Z,99.90
2023-05-12T06:46:54.745Z,99.90
2023-05-12T06:49:21.605Z,99.90
2023-05-12T06:51:48.613Z,99.90
2023-05-12T06:54:15.488Z,99.90
2023-05-12T06:56:42.498Z,99.90
2023-05-12T06:59:09.317Z,99.90
2023-05-12T07:01:37.262Z,99.90
2023-05-12T07:04:04.197Z,99.90
2023-05-12T07:06:32.474Z,99.90
2023-05-12T07:08:59.562Z,99.90
2023-05-12T07:11:26.917Z,99.90
2023-05-12T07:13:53.827Z,99.90
2023-05-12T07:16:20.730Z,99.90
2023-05-12T07:18:47.672Z,99.90
2023-05-12T07:21:14.900Z,99.90
2023-05-12T07:23:44.560Z,99.90
2023-05-12T07:26:11.412Z,99.90
2023-05-12T07:28:38.357Z,99.90
2023-05-12T07:31:07.240Z,99.90
2023-05-12T07:33:35.031Z,99.90
2023-05-12T07:36:02.749Z,99.90
2023-05-12T07:38:29.594Z,99.90
2023-05-12T07:40:56.928Z,99.90
2023-05-12T07:43:25.988Z,99.90
2023-05-12T07:45:56.066Z,99.90
2023-05-12T07:48:22.981Z,99.90
2023-05-12T07:50:49.815Z,99.90
2023-05-12T07:53:19.700Z,99.90
2023-05-12T07:55:46.828Z,99.90
2023-05-12T07:58:19.616Z,99.90
2023-05-12T08:00:57.076Z,99.90
2023-05-12T08:03:24.261Z,99.90
2023-05-12T08:06:10.881Z,99.90
2023-05-12T08:08:38.097Z,99.90
2023-05-12T08:11:05.067Z,99.90
2023-05-12T08:13:31.892Z,99.90
2023-05-12T08:15:59.020Z,99.90
2023-05-12T08:18:26.049Z,99.90
2023-05-12T08:20:52.977Z,99.90
2023-05-12T08:23:22.114Z,99.90
2023-05-12T08:25:49.836Z,99.90
2023-05-12T08:28:18.170Z,99.90
2023-05-12T08:30:45.612Z,99.90
2023-05-12T08:33:12.766Z,99.90
2023-05-12T08:35:39.878Z,99.90
2023-05-12T08:38:06.817Z,99.90
2023-05-12T08:40:38.098Z,99.90
2023-05-12T08:43:13.335Z,99.90
2023-05-12T08:45:40.483Z,99.90
2023-05-12T08:48:13.576Z,99.90
2023-05-12T08:50:41.120Z,99.90
2023-05-12T08:53:10.488Z,99.90
2023-05-12T08:55:39.357Z,99.90
2023-05-12T08:58:09.670Z,99.90
2023-05-12T09:00:38.866Z,99.90
2023-05-12T09:03:06.334Z,99.90
2023-05-12T09:05:33.571Z,99.90
2023-05-12T09:08:01.040Z,99.90
2023-05-12T09:10:35.199Z,99.90
2023-05-12T09:13:22.984Z,99.90
2023-05-12T09:15:53.266Z,99.90
2023-05-12T09:18:22.545Z,99.90
2023-05-12T09:20:49.413Z,99.90
2023-05-12T09:23:16.855Z,99.90
2023-05-12T09:25:43.947Z,99.90
2023-05-12T09:28:10.845Z,99.90
2023-05-12T09:30:38.532Z,99.90
2023-05-12T09:33:06.399Z,99.90
2023-05-12T09:35:37.634Z,99.90
2023-05-12T09:38:08.683Z,99.90
2023-05-12T09:40:35.760Z,99.90
2023-05-12T09:43:07.554Z,99.90
2023-05-12T09:45:36.445Z,99.90
2023-05-12T09:48:13.884Z,99.90
2023-05-12T09:50:47.946Z,99.90
2023-05-12T09:53:17.620Z,99.90
2023-05-12T09:55:47.232Z,99.90
2023-05-12T09:58:18.130Z,99.90
2023-05-12T10:01:06.159Z,99.90
2023-05-12T10:03:33.432Z,99.90
2023-05-12T10:06:20.213Z,99.90
2023-05-12T10:08:49.979Z,99.90
2023-05-12T10:11:17.478Z,99.90
2023-05-12T10:13:44.436Z,99.90
2023-05-12T10:16:11.472Z,99.90
2023-05-12T10:18:39.065Z,99.90
2023-05-12T10:21:07.005Z,99.90
2023-05-12T10:23:36.542Z,99.90
2023-05-12T10:26:07.408Z,99.90
2023-05-12T10:28:34.204Z,99.90
2023-05-12T10:31:01.327Z,99.90
2023-05-12T10:33:28.491Z,99.90
2023-05-12T10:35:55.958Z,99.90
2023-05-12T10:38:28.241Z,99.90
2023-05-12T10:40:58.282Z,99.90
2023-05-12T10:43:26.733Z,99.90
2023-05-12T10:46:30.365Z,99.90
2023-05-12T10:49:03.399Z,99.90
2023-05-12T10:51:31.356Z,99.90
2023-05-12T10:57:31.284Z,99.90
2023-05-12T11:00:00.683Z,99.90
2023-05-12T11:06:03.014Z,99.70
2023-05-12T11:08:32.428Z,99.70
2023-05-12T11:10:59.698Z,99.90
2023-05-12T11:13:26.769Z,99.90
2023-05-12T11:15:54.587Z,99.90
2023-05-12T11:18:25.098Z,99.90
2023-05-12T11:20:53.069Z,99.90
2023-05-12T11:23:29.204Z,99.90
2023-05-12T11:25:56.455Z,99.90
2023-05-12T11:28:23.687Z,99.90
2023-05-12T11:30:55.187Z,99.90
2023-05-12T11:33:22.957Z,99.90
2023-05-12T11:36:43.993Z,99.90
2023-05-12T11:39:17.772Z,99.90
2023-05-12T11:41:44.936Z,99.90
2023-05-12T11:44:19.044Z,99.90
2023-05-12T11:46:59.200Z,99.90
2023-05-12T11:49:44.742Z,99.90
2023-05-12T11:52:11.836Z,99.70
2023-05-12T11:54:38.755Z,98.80
2023-05-12T11:57:36.022Z,99.80
2023-05-12T12:00:09.036Z,99.80
2023-05-12T12:02:40.017Z,97.80
2023-05-12T12:05:16.704Z,99.30
2023-05-12T12:07:43.612Z,95.40
2023-05-12T12:10:19.728Z,98.70
2023-05-12T12:12:49.867Z,99.90
2023-05-12T12:15:16.977Z,96.40
2023-05-12T12:17:44.042Z,99.10
2023-05-12T12:20:13.714Z,94.40
2023-05-12T12:22:40.766Z,97.40
2023-05-12T12:25:12.480Z,95.40
2023-05-12T12:27:44.523Z,95.40
2023-05-12T12:30:12.208Z,95.80
2023-05-12T12:32:39.772Z,93.10
2023-05-12T12:35:13.296Z,95.40
2023-05-12T12:37:40.938Z,93.20
2023-05-12T12:40:08.331Z,93.20
2023-05-12T12:42:38.609Z,94.90
2023-05-12T12:45:05.958Z,91.60
2023-05-12T12:47:33.201Z,93.10
2023-05-12T12:50:00.280Z,92.40
2023-05-12T12:52:27.179Z,93.00
2023-05-12T12:54:54.390Z,91.60
2023-05-12T12:57:22.965Z,91.30
2023-05-12T12:59:50.283Z,91.20
2023-05-12T13:02:17.276Z,92.40
2023-05-12T13:04:44.175Z,88.50
2023-05-12T13:07:10.924Z,86.90
2023-05-12T13:09:37.785Z,88.60
2023-05-12T13:12:08.023Z,87.50
2023-05-12T13:14:35.015Z,86.50
2023-05-12T13:17:02.668Z,90.00
2023-05-12T13:19:29.949Z,90.50
2023-05-12T13:21:56.846Z,91.00
2023-05-12T13:24:24.120Z,88.60
2023-05-12T13:26:52.041Z,85.80
2023-05-12T13:29:19.330Z,88.10
2023-05-12T13:31:46.822Z,85.60
2023-05-12T13:34:14.140Z,84.40
2023-05-12T13:36:41.208Z,88.10
2023-05-12T13:39:09.183Z,87.40
2023-05-12T13:41:36.893Z,87.80
2023-05-12T13:44:04.678Z,88.30
2023-05-12T13:46:31.742Z,89.60
2023-05-12T13:48:58.724Z,89.20
2023-05-12T13:51:26.085Z,89.30
2023-05-12T13:53:53.793Z,85.00
2023-05-12T13:56:20.823Z,88.50
2023-05-12T13:58:47.852Z,86.90
2023-05-12T14:01:14.909Z,85.70
2023-05-12T14:03:42.632Z,85.20
2023-05-12T14:06:09.599Z,82.30
2023-05-12T14:08:36.493Z,84.10
2023-05-12T14:11:03.659Z,82.70
2023-05-12T14:13:31.050Z,86.80
2023-05-12T14:15:58.579Z,89.60
2023-05-12T14:18:25.711Z,89.20
2023-05-12T14:20:52.689Z,85.40
2023-05-12T14:23:19.685Z,83.00
2023-05-12T14:25:46.564Z,85.60
2023-05-12T14:28:17.424Z,84.30
2023-05-12T14:30:45.448Z,83.80
2023-05-12T14:33:16.223Z,84.00
2023-05-12T14:35:44.728Z,85.20
2023-05-12T14:38:15.328Z,83.50
2023-05-12T14:40:43.064Z,82.10
2023-05-12T14:43:58.549Z,82.40
2023-05-12T14:46:25.777Z,79.70
2023-05-12T14:48:53.016Z,79.20
2023-05-12T14:51:20.076Z,80.20
2023-05-12T14:53:46.946Z,79.80
2023-05-12T14:56:14.187Z,81.80
2023-05-12T14:58:41.122Z,78.50
2023-05-12T15:01:09.440Z,79.90
2023-05-12T15:03:36.615Z,82.10
2023-05-12T15:06:07.095Z,83.30
2023-05-12T15:08:34.628Z,83.40
2023-05-12T15:11:01.514Z,82.90
2023-05-12T15:13:28.388Z,84.20
2023-05-12T15:15:56.656Z,83.30
2023-05-12T15:18:24.063Z,85.10
2023-05-12T15:20:51.585Z,81.10
2023-05-12T15:23:44.410Z,83.00
2023-05-12T15:26:26.983Z,85.60
2023-05-12T15:28:57.980Z,85.10
2023-05-12T15:31:25.715Z,85.80
2023-05-12T15:33:52.618Z,88.30
2023-05-12T15:36:19.429Z,86.70
2023-05-12T15:38:47.285Z,85.60
2023-05-12T15:41:14.168Z,86.10
2023-05-12T15:43:41.110Z,86.40
2023-05-12T15:46:08.085Z,85.20
2023-05-12T15:48:35.015Z,87.20
2023-05-12T15:51:04.311Z,88.50
2023-05-12T15:53:31.509Z,88.10
2023-05-12T15:56:01.782Z,86.10
2023-05-12T15:58:28.760Z,88.50
2023-05-12T16:00:55.765Z,88.60
2023-05-12T16:03:23.934Z,87.30
2023-05-12T16:05:51.316Z,86.40
2023-05-12T16:08:18.168Z,88.30
2023-05-12T16:10:44.918Z,89.50
2023-05-12T16:13:11.869Z,89.20
2023-05-12T16:15:38.673Z,90.10
2023-05-12T16:18:09.117Z,89.70
2023-05-12T16:20:37.935Z,90.30
2023-05-12T16:23:04.816Z,90.30
2023-05-12T16:25:31.738Z,90.50
2023-05-12T16:27:58.504Z,90.30
2023-05-12T16:30:25.432Z,90.30
2023-05-12T16:32:52.288Z,90.80
2023-05-12T16:35:19.444Z,89.50
2023-05-12T16:37:46.512Z,91.00
2023-05-12T16:40:14.607Z,91.20
2023-05-12T16:42:41.934Z,90.50
2023-05-12T16:45:09.117Z,88.70
2023-05-12T16:47:35.951Z,90.10
2023-05-12T16:50:02.977Z,88.80
2023-05-12T16:52:29.830Z,90.60
2023-05-12T16:54:57.286Z,90.20
2023-05-12T16:57:24.338Z,90.40
2023-05-12T16:59:51.260Z,89.80
2023-05-12T17:02:18.228Z,88.40
2023-05-12T17:04:45.269Z,89.50
2023-05-12T17:07:12.188Z,90.10
2023-05-12T17:09:43.492Z,90.20
2023-05-12T17:12:11.535Z,90.40
2023-05-12T17:14:40.755Z,90.00
2023-05-12T17:17:07.868Z,90.80
2023-05-12T17:19:41.870Z,90.70
2023-05-12T17:22:10.260Z,91.00
2023-05-12T17:24:37.260Z,90.10
2023-05-12T17:27:04.484Z,91.30
2023-05-12T17:29:31.449Z,90.00
2023-05-12T17:31:58.534Z,90.90
2023-05-12T17:34:28.463Z,91.60
2023-05-12T17:36:55.943Z,91.50
2023-05-12T17:39:50.698Z,91.60
2023-05-12T17:42:23.161Z,91.50
2023-05-12T17:44:49.994Z,91.60
2023-05-12T17:47:17.087Z,91.10
2023-05-12T17:49:45.000Z,91.30
2023-05-12T17:52:11.880Z,91.90
2023-05-12T17:54:38.744Z,91.40
2023-05-12T17:57:05.766Z,90.80
2023-05-12T17:59:32.575Z,91.60
2023-05-12T18:01:59.567Z,90.10
2023-05-12T18:04:26.586Z,89.50
2023-05-12T18:06:53.519Z,89.50
2023-05-12T18:09:23.441Z,90.40
2023-05-12T18:11:50.353Z,90.70
2023-05-12T18:14:17.868Z,89.60
2023-05-12T18:16:44.810Z,88.70
2023-05-12T18:19:11.755Z,90.40
2023-05-12T18:21:38.547Z,90.30
2023-05-12T18:24:05.589Z,90.50
2023-05-12T18:26:32.726Z,91.20
2023-05-12T18:28:59.602Z,91.10
2023-05-12T18:31:26.906Z,90.60
2023-05-12T18:33:53.747Z,89.40
2023-05-12T18:36:20.578Z,89.80
2023-05-12T18:38:47.516Z,90.50
2023-05-12T18:41:14.776Z,89.80
2023-05-12T18:43:44.015Z,90.00
2023-05-12T18:46:11.716Z,90.30
2023-05-12T18:48:40.829Z,90.50
2023-05-12T18:51:07.998Z,90.50
2023-05-12T18:53:34.834Z,90.50
2023-05-12T18:56:01.642Z,91.30
2023-05-12T18:58:28.493Z,91.80
2023-05-12T19:00:55.546Z,91.80
2023-05-12T19:03:22.452Z,92.30
2023-05-12T19:05:49.497Z,92.50
2023-05-12T19:08:17.643Z,93.10
2023-05-12T19:10:44.448Z,92.70
2023-05-12T19:13:11.262Z,92.80
2023-05-12T19:15:38.061Z,93.10
2023-05-12T19:18:04.956Z,93.60
2023-05-12T19:20:32.631Z,93.90
2023-05-12T19:22:59.878Z,94.10
2023-05-12T19:25:26.676Z,93.90
2023-05-12T19:27:54.611Z,94.40
2023-05-12T19:30:21.513Z,94.80
2023-05-12T19:32:50.229Z,95.10
2023-05-12T19:35:17.258Z,95.10
2023-05-12T19:37:44.348Z,95.70
2023-05-12T19:40:11.431Z,95.90
2023-05-12T19:42:38.252Z,96.60
2023-05-12T19:45:05.449Z,96.60
2023-05-12T19:47:33.468Z,96.50
2023-05-12T19:50:00.724Z,97.50
2023-05-12T19:52:30.589Z,97.20
2023-05-12T19:54:57.511Z,97.70
2023-05-12T19:57:24.451Z,97.80
2023-05-12T19:59:51.398Z,97.90
2023-05-12T20:02:18.449Z,98.10
2023-05-12T20:04:45.382Z,98.50
2023-05-12T20:07:12.622Z,99.00
2023-05-12T20:09:42.588Z,99.10
2023-05-12T20:12:09.509Z,99.20
2023-05-12T20:14:38.301Z,99.80
2023-05-12T20:17:07.162Z,99.70
2023-05-12T20:19:33.982Z,99.90
2023-05-12T20:22:01.123Z,99.80
2023-05-12T20:24:27.885Z,99.90
2023-05-12T20:26:54.697Z,99.90
2023-05-12T20:29:21.665Z,99.90
2023-05-12T20:31:49.119Z,99.90
2023-05-12T20:34:16.026Z,99.90
2023-05-12T20:36:44.285Z,99.90
2023-05-12T20:39:15.151Z,99.90
2023-05-12T20:41:42.763Z,99.90
2023-05-12T20:44:09.756Z,99.90
2023-05-12T20:46:38.418Z,99.90
2023-05-12T20:49:06.134Z,99.90
2023-05-12T20:51:33.412Z,99.90
2023-05-12T20:54:00.496Z,99.90
2023-05-12T20:56:27.390Z,99.90
2023-05-12T20:58:54.280Z,99.90
2023-05-12T21:01:21.242Z,99.90
2023-05-12T21:03:48.571Z,99.90
2023-05-12T21:06:15.509Z,99.90
2023-05-12T21:08:42.401Z,99.90
2023-05-12T21:11:16.553Z,99.90
2023-05-12T21:13:49.424Z,99.90
2023-05-12T21:16:16.744Z,99.90
2023-05-12T21:18:43.724Z,99.90
2023-05-12T21:21:10.901Z,99.90
2023-05-12T21:23:37.856Z,99.90
2023-05-12T21:26:04.996Z,99.90
2023-05-12T21:28:32.124Z,99.90
2023-05-12T21:30:58.914Z,99.90
2023-05-12T21:33:25.753Z,99.90
2023-05-12T21:35:52.552Z,99.90
2023-05-12T21:38:20.758Z,99.90
2023-05-12T21:40:56.242Z,99.90
2023-05-12T21:43:23.189Z,99.90
2023-05-12T21:45:50.040Z,99.90
2023-05-12T21:48:16.820Z,99.90
2023-05-12T21:50:43.696Z,99.90
2023-05-12T21:53:10.550Z,99.90
2023-05-12T21:55:37.374Z,99.90
2023-05-12T21:58:04.198Z,99.90
2023-05-12T22:00:30.964Z,99.90
2023-05-12T22:02:57.787Z,99.90
2023-05-12T22:05:24.627Z,99.90
2023-05-12T22:07:51.423Z,99.90
2023-05-12T22:10:18.308Z,99.90
2023-05-12T22:12:46.540Z,99.90
2023-05-12T22:15:13.405Z,99.90
2023-05-12T22:17:40.338Z,99.90
2023-05-12T22:20:08.285Z,99.90
2023-05-12T22:22:35.038Z,99.90
2023-05-12T22:25:02.381Z,99.90
2023-05-12T22:27:29.140Z,99.90
2023-05-12T22:29:56.877Z,99.90
2023-05-12T22:32:23.717Z,99.90
2023-05-12T22:34:52.378Z,99.90
2023-05-12T22:37:19.222Z,99.90
2023-05-12T22:39:46.016Z,99.90
2023-05-12T22:42:12.906Z,99.90
2023-05-12T22:44:39.768Z,99.90
2023-05-12T22:47:06.912Z,99.90
2023-05-12T22:49:33.733Z,99.90
2023-05-12T22:52:00.612Z,99.90
2023-05-12T22:54:27.446Z,99.90
2023-05-12T22:56:54.272Z,99.90
2023-05-12T22:59:21.084Z,99.90
2023-05-12T23:01:47.893Z,99.90
2023-05-12T23:04:15.069Z,99.90
2023-05-12T23:06:42.224Z,99.90
2023-05-12T23:09:09.633Z,99.90
2023-05-12T23:11:36.505Z,99.90
2023-05-12T23:14:03.281Z,99.90
2023-05-12T23:16:30.220Z,99.90
2023-05-12T23:18:57.064Z,99.90
2023-05-12T23:21:23.896Z,99.90
2023-05-12T23:23:50.697Z,99.90
2023-05-12T23:26:17.519Z,99.90
2023-05-12T23:28:44.575Z,99.90
2023-05-12T23:31:11.598Z,99.90
2023-05-12T23:33:38.519Z,99.90
2023-05-12T23:36:05.418Z,99.90
2023-05-12T23:38:32.227Z,99.90
2023-05-12T23:40:59.012Z,99.90
2023-05-12T23:43:25.919Z,99.90
2023-05-12T23:45:52.984Z,99.90
2023-05-12T23:48:19.797Z,99.90
2023-05-12T23:50:46.699Z,99.90
2023-05-12T23:53:13.487Z,99.90
2023-05-12T23:55:40.464Z,99.90
2023-05-12T23:58:09.441Z,99.90
